Terminal Aerodrome Forecast
Issued by NWS

Home | Current Version | Previous Version | Text Only | Print | Product List | Glossary On
Versions: 1 2 3 4 5 6 7 8 9 10 11 12 13 14 15 16 17 18
000
FTUS43 KIND 240523
TAFBMG
TAF
KBMG 240523Z 2406/2506 10007KT P6SM VCSH SCT025 BKN035
     FM240900 08007KT P6SM BKN015
     FM241400 06005KT P6SM VCSH OVC003
     FM241500 06005KT P6SM VCSH OVC008
     FM250000 01005KT P6SM OVC008
     FM250500 35005KT P6SM BKN008
      AMD LTD TO CLD VIS AND WIND TIL 241300=

USA.gov is the U.S. government's official web portal to all federal, state and local government web resources and services.